Flight Track Log - Related Links

Times and Time Zones

All times are in EDT time to prevent confusion due to time zone crossing. See the EJA929 flight status page for this flight to view local times or setup timezone preferences in your user account.


Time Position Orientation Groundspeed Altitude Reporting Facility
EDT Latitude Longitude Course Direction KTS MPH feet Rate Location/Type
Wed 11:04:15 AM 39.1500 -76.7667 90° East 233 268 4,300  Level Potomac TRACON
Wed 11:06:06 AM 39.0797 -76.6450 127° Southeast 283 326 7,600 1,884 Climbing Washington Center
Wed 11:07:07 AM 39.0556 -76.5353 106° East 274 315 9,700 1,574 Climbing Washington Center
Wed 11:08:08 AM 39.0314 -76.4147 104° East 307 353 10,800 1,736 Climbing Washington Center
Wed 11:09:00 AM 39.0500 -75.7169 90° East  Level FlightAware Approximate
Wed 11:09:08 AM 39.0261 -76.2836 93° East 354 407 13,200  Level Washington Center
Wed 11:10:06 AM 39.0372 -76.1500 84° East 354 407 15,800 2,420 Climbing Washington Center
Wed 11:11:07 AM 39.0458 -76.0272 85° East 354 407 18,000 2,066 Climbing Washington Center
Wed 11:12:08 AM 39.0525 -75.8989 86° East 359 413 20,000 1,967 Climbing Washington Center
Wed 11:13:09 AM 39.0592 -75.7681 86° East 359 413 22,000 1,525 Climbing Washington Center
Wed 11:14:06 AM 39.0633 -75.6317 88° East 370 426 23,000 513 Climbing Washington Center
Wed 11:15:06 AM 39.0675 -75.4739 88° East 397 457 23,000 496 Level Washington Center
Wed 11:16:07 AM 39.0442 -75.3136 101° East 432 497 24,000 1,426 Climbing Washington Center
Wed 11:17:08 AM 39.0147 -75.1536 103° East 448 516 25,900 1,488 Climbing Washington Center
Wed 11:18:08 AM 38.9889 -75.0014 102° East 453 521 27,000 550 Climbing Washington Center
Wed 11:19:08 AM 38.9608 -74.8414 103° East 448 516 27,000  Level Washington Center
Wed 11:20:06 AM 38.9283 -74.6711 104° East 461 531 27,000  Level Washington Center
Wed 11:21:08 AM 38.9000 -74.4981 102° East 482 555 27,000 689 Level Washington Center
Wed 11:22:08 AM 38.8628 -74.3333 106° East 482 555 28,400 1,322 Climbing Washington Center
Wed 11:24:05 AM 38.7272 -74.0575 122° Southeast 482 555 30,900 891 Climbing New York Center
Wed 11:25:03 AM 38.6542 -73.9133 123° Southeast 482 555 31,000 50 Climbing New York Center
Wed 11:26:04 AM 38.5767 -73.7611 123° Southeast 496 571 31,000  Level New York Center
Wed 11:27:05 AM 38.4992 -73.6119 124° Southeast 509 586 31,000  Level New York Center
Wed 11:28:04 AM 38.4236 -73.4553 122° Southeast 514 592 31,000  Level New York Center
Wed 11:29:05 AM 38.3456 -73.3067 124° Southeast 514 592 31,000  Level New York Center
Wed 11:30:02 AM 38.2675 -73.1531 123° Southeast 514 592 31,000  Level New York Center
Wed 11:31:03 AM 38.1956 -72.9950 120° Southeast 514 592 31,000  Level New York Center
Wed 11:32:03 AM 38.1128 -72.8525 126° Southeast 519 597 31,000  Level New York Center
Wed 11:33:04 AM 38.0500 -72.7319 123° Southeast 514 592 31,000  Level New York Center
Wed 11:34:03 AM 37.9653 -72.5583 122° Southeast 519 597 31,000  Level New York Center
Wed 11:35:04 AM 37.8800 -72.3983 124° Southeast 518 596 31,000  Level New York Center
Wed 11:36:04 AM 37.8133 -72.2522 120° Southeast 504 580 31,000  Level New York Center
Wed 11:37:05 AM 37.7378 -72.1064 123° Southeast 505 581 31,000  Level New York Center
Wed 11:38:03 AM 37.6667 -71.9556 121° Southeast 502 578 31,000  Level New York Center
Wed 11:39:03 AM 37.6183 -71.7686 108° East 522 601 31,000  Level New York Center
Wed 11:40:02 AM 37.5614 -71.5947 112° Southeast 522 601 31,000  Level New York Center
Wed 11:41:04 AM 37.5186 -71.4292 108° East 534 615 31,000  Level New York Center
Wed 11:42:04 AM 37.4653 -71.2667 112° Southeast 527 606 31,000  Level New York Center
Wed 11:43:03 AM 37.4178 -71.0936 109° East 527 606 31,000  Level New York Center
Wed 11:44:05 AM 37.3703 -70.9183 109° East 532 612 31,000  Level New York Center
Wed 11:46:00 AM 37.2821 -70.6457 110° East  Level FlightAware Approximate
Wed 11:53:00 AM 36.9799 -69.6283 111° Southeast  Level FlightAware Approximate
Wed 11:54:00 AM 36.9350 -69.4842 111° Southeast  Level FlightAware Approximate
Wed 11:55:00 AM 36.8898 -69.3402 111° Southeast  Level FlightAware Approximate
Wed 11:56:00 AM 36.8454 -69.1960 111° Southeast  Level FlightAware Approximate
Wed 11:57:00 AM 36.8019 -69.0514 111° Southeast  Level FlightAware Approximate
Wed 11:58:00 AM 36.7581 -68.9070 111° Southeast  Level FlightAware Approximate
Wed 11:59:00 AM 36.7142 -68.7627 111° Southeast  Level FlightAware Approximate
Wed 12:00:00 PM 36.6701 -68.6187 111° Southeast  Level FlightAware Approximate
Wed 12:00:19 PM 36.5667 -68.2833 142° Southeast 483 556 31,000  Level New York Oceanic (ODAPS)
Wed 12:01:00 PM 36.6259 -68.4747 111° Southeast  Level FlightAware Approximate
Wed 12:02:00 PM 36.5815 -68.3310 111° Southeast  Level FlightAware Approximate
Wed 12:03:00 PM 36.5019 -68.2195 142° Southeast  Level FlightAware Approximate
Wed 12:04:00 PM 36.4049 -68.1241 142° Southeast  Level FlightAware Approximate
Wed 12:05:00 PM 36.3079 -68.0289 142° Southeast  Level FlightAware Approximate
Wed 12:06:00 PM 35.7194 -67.4664 142° Southeast 483 556 31,000  Level FlightAware Transoceanic
Wed 12:07:00 PM 35.6131 -67.3655 142° Southeast 483 556 31,000  Level FlightAware Transoceanic
Wed 12:08:00 PM 35.5067 -67.2649 142° Southeast 483 556 31,000  Level FlightAware Transoceanic
Wed 12:09:00 PM 35.4002 -67.1645 143° Southeast 483 556 31,000  Level FlightAware Transoceanic
Wed 12:10:00 PM 35.2937 -67.0644 143° Southeast 483 556 31,000  Level FlightAware Transoceanic
Wed 12:11:00 PM 35.1870 -66.9646 143° Southeast 483 556 31,000  Level FlightAware Transoceanic
Wed 12:12:00 PM 35.0803 -66.8650 143° Southeast 483 556 31,000  Level FlightAware Transoceanic
Wed 12:13:00 PM 34.9735 -66.7657 143° Southeast 483 556 31,000  Level FlightAware Transoceanic
Wed 12:14:00 PM 34.8667 -66.6667 146° Southeast 483 556 31,000  Level FlightAware Transoceanic
Wed 12:15:00 PM 34.7483 -66.5696 146° Southeast 483 556 31,000  Level FlightAware Transoceanic
Wed 12:15:07 PM 34.8667 -66.6667 146° Southeast 399 459 31,000  Level New York Oceanic (ODAPS)
Wed 12:16:00 PM 34.6300 -66.4727 146° Southeast 483 556 31,000  Level FlightAware Transoceanic
Wed 12:17:00 PM 34.5115 -66.3762 146° Southeast 483 556 31,000  Level FlightAware Transoceanic
Wed 12:18:00 PM 34.3930 -66.2799 146° Southeast 483 556 31,000  Level FlightAware Transoceanic
Wed 12:19:00 PM 34.2743 -66.1839 146° Southeast 483 556 31,000 -625 Level FlightAware Transoceanic
Wed 12:19:36 PM 34.8667 -66.6667 146° Southeast 399 459 30,000  Descending New York Oceanic (ODAPS)
Wed 12:20:00 PM 34.1557 -66.0881 146° Southeast 483 556 31,000 714 Climbing FlightAware Transoceanic
Wed 12:21:00 PM 34.2216 -66.1413 146° Southeast 399 459 31,000  Level FlightAware Transoceanic
Wed 12:22:00 PM 34.1293 -66.0669 146° Southeast 399 459 31,000  Level FlightAware Transoceanic
Wed 12:23:00 PM 34.0369 -65.9927 146° Southeast 399 459 31,000  Level FlightAware Transoceanic
Wed 12:24:00 PM 33.9445 -65.9186 146° Southeast 399 459 31,000  Level FlightAware Transoceanic
Wed 12:25:00 PM 33.8520 -65.8447 146° Southeast 399 459 31,000 -500 Level FlightAware Transoceanic
Wed 12:26:00 PM 33.7595 -65.7709 147° Southeast 399 459 30,000 -500 Descending FlightAware Transoceanic
Wed 12:27:00 PM 33.6669 -65.6973 147° Southeast 399 459 30,000  Level FlightAware Transoceanic
Wed 12:28:00 PM 33.5743 -65.6239 147° Southeast 399 459 30,000  Level FlightAware Transoceanic
Wed 12:29:00 PM 33.4817 -65.5506 147° Southeast 399 459 30,000  Level FlightAware Transoceanic
Wed 12:30:00 PM 33.3890 -65.4775 147° Southeast 399 459 30,000  Level FlightAware Transoceanic
Wed 12:31:00 PM 33.2963 -65.4046 147° Southeast 399 459 30,000  Level FlightAware Transoceanic
Wed 12:32:00 PM 33.2035 -65.3318 147° Southeast 399 459 30,000  Level FlightAware Transoceanic
Wed 12:33:00 PM 33.1107 -65.2591 147° Southeast 399 459 30,000  Level FlightAware Transoceanic
Wed 12:34:00 PM 33.0178 -65.1866 147° Southeast 399 459 30,000 -5,106 Level FlightAware Transoceanic
Wed 12:35:00 PM 33.0071 -65.1916 144° Southeast  Level FlightAware Approximate
Wed 12:35:21 PM 34.8667 -66.6667 146° Southeast 399 459 18,000  Level New York Oceanic (ODAPS)
Wed 12:36:00 PM 32.6500 -64.9000 169° South 399 459 30,000 18,462 Climbing FlightAware Transoceanic
Wed 12:37:00 PM 32.7486 -64.9766 327° Northwest  Level FlightAware Approximate
Wed 12:38:00 PM 32.8471 -65.0534 327° Northwest  Level FlightAware Approximate
Wed 12:39:00 PM 32.9456 -65.1303 327° Northwest  Level FlightAware Approximate
Wed 12:40:00 PM 33.0440 -65.2074 327° Northwest  Level FlightAware Approximate
Wed 12:41:00 PM 34.3638 -66.2594 147° Southeast  Level FlightAware Approximate
Wed 12:42:00 PM 34.2740 -66.1890 147° Southeast  Level FlightAware Approximate
Wed 12:43:00 PM 34.1840 -66.1190 147° Southeast  Level FlightAware Approximate
Wed 12:44:00 PM 34.0942 -66.0488 147° Southeast  Level FlightAware Approximate
Wed 12:45:00 PM 34.0048 -65.9777 147° Southeast  Level FlightAware Approximate
Wed 12:46:00 PM 33.9154 -65.9068 147° Southeast  Level FlightAware Approximate
Wed 12:47:00 PM 33.8259 -65.8361 147° Southeast  Level FlightAware Approximate
Wed 12:48:00 PM 33.7364 -65.7655 147° Southeast  Level FlightAware Approximate
Wed 12:49:00 PM 33.6469 -65.6951 147° Southeast  Level FlightAware Approximate
Wed 12:50:00 PM 33.5573 -65.6248 147° Southeast  Level FlightAware Approximate
Wed 12:51:00 PM 33.4677 -65.5547 147° Southeast  Level FlightAware Approximate
Wed 12:52:00 PM 33.3780 -65.4847 147° Southeast  Level FlightAware Approximate
Wed 12:53:00 PM 33.2883 -65.4148 147° Southeast  Level FlightAware Approximate
Wed 12:54:00 PM 33.1985 -65.3451 147° Southeast  Level FlightAware Approximate
Wed 12:55:00 PM 33.1104 -65.2729 147° Southeast  Level FlightAware Approximate
Wed 12:56:00 PM 33.0207 -65.2031 147° Southeast  Level FlightAware Approximate
Wed 12:57:00 PM 32.9343 -65.1279 144° Southeast  Level FlightAware Approximate
Wed 12:58:00 PM 32.8460 -65.0561 149° Southeast  Level FlightAware Approximate
Wed 12:59:00 PM 32.7547 -64.9897 149° Southeast  Level FlightAware Approximate
Wed 01:00:00 PM 32.6637 -64.9228 148° Southeast  Level FlightAware Approximate
Wed 01:01:00 PM 32.5744 -64.8528 146° Southeast  Level FlightAware Approximate
Wed 01:02:00 PM 32.4853 -64.7843 157° South  Level FlightAware Approximate
Wed 01:03:00 PM 32.3947 -64.7169 148° Southeast  Level FlightAware Approximate
Wed 01:04:00 PM 32.3640 -64.6787 90° East  Level Estimated
Wed 01:05:00 PM 32.3640 -64.6787 90° East  Level Estimated
Wed 01:06:00 PM 32.3640 -64.6787 90° East  Level Estimated
Wed 01:07:00 PM 32.3640 -64.6787 90° East  Level Estimated
Wed 01:08:00 PM 32.3640 -64.6787 90° East  Level Estimated
Wed 01:09:00 PM 32.3640 -64.6787 90° East  Level Estimated
Wed 01:10:00 PM 32.3640 -64.6787 90° East  Level Estimated
Wed 01:11:00 PM 32.3640 -64.6787 90° East  Level Estimated
Wed 01:12:00 PM 32.3640 -64.6787 90° East  Level Estimated
Wed 01:13:00 PM 32.3640 -64.6787 90° East  Level Estimated
Wed 01:14:00 PM 32.3640 -64.6787 90° East  Level Estimated
Wed 01:15:00 PM 32.3640 -64.6787 90° East  Level Estimated

Login

Don't have an account? Register now (free) for customized features, flight alerts, and more!